Flight Track Log - Related Links

Times and Time Zones

All times are in EDT time to prevent confusion due to time zone crossing. See the KAP4821 flight status page for this flight to view local times or setup timezone preferences in your user account.

Time Position Orientation Groundspeed Altitude Reporting Facility
EDT Latitude Longitude Course Direction KTS MPH feet Rate Location/Type
Tue 02:21:00 PM 17.2215 -62.6324 291° West  Level Estimated
Tue 02:22:00 PM 17.2374 -62.6750 291° West  Level Estimated
Tue 02:23:00 PM 17.2532 -62.7175 291° West  Level Estimated
Tue 02:24:00 PM 17.2690 -62.7601 291° West  Level Estimated
Tue 02:25:00 PM 17.2848 -62.8027 291° West  Level Estimated
Tue 02:26:00 PM 17.3007 -62.8453 291° West  Level Estimated
Tue 02:27:00 PM 17.3165 -62.8879 291° West  Level Estimated
Tue 02:28:00 PM 17.3323 -62.9305 291° West  Level Estimated
Tue 02:29:00 PM 17.3480 -62.9731 291° West  Level Estimated
Tue 02:30:00 PM 17.3638 -63.0157 291° West  Level Estimated
Tue 02:31:00 PM 17.3796 -63.0584 291° West  Level Estimated
Tue 02:32:00 PM 17.3953 -63.1010 291° West  Level Estimated
Tue 02:33:00 PM 17.4111 -63.1437 291° West  Level Estimated
Tue 02:34:00 PM 17.4268 -63.1863 291° West  Level Estimated
Tue 02:35:00 PM 17.4425 -63.2290 291° West  Level Estimated
Tue 02:36:00 PM 17.4582 -63.2716 291° West  Level Estimated
Tue 02:37:00 PM 17.4739 -63.3143 291° West  Level Estimated
Tue 02:38:00 PM 17.4897 -63.3570 291° West  Level Estimated
Tue 02:39:00 PM 17.5053 -63.3997 291° West  Level Estimated
Tue 02:40:00 PM 17.5210 -63.4424 291° West  Level Estimated
Tue 02:41:00 PM 17.5367 -63.4851 291° West  Level Estimated
Tue 02:42:00 PM 17.5523 -63.5278 291° West  Level Estimated
Tue 02:43:00 PM 17.5680 -63.5705 291° West  Level Estimated
Tue 02:44:00 PM 17.5836 -63.6132 291° West  Level Estimated
Tue 02:45:00 PM 17.5993 -63.6559 291° West  Level Estimated
Tue 02:46:00 PM 17.6149 -63.6987 291° West  Level Estimated
Tue 02:47:00 PM 17.6305 -63.7414 291° West  Level Estimated
Tue 02:48:00 PM 17.6461 -63.7842 291° West  Level Estimated
Tue 02:49:00 PM 17.6617 -63.8269 291° West  Level Estimated
Tue 02:50:00 PM 17.6773 -63.8697 291° West  Level Estimated
Tue 02:51:00 PM 17.6929 -63.9125 291° West  Level Estimated
Tue 02:52:00 PM 17.7085 -63.9553 291° West  Level Estimated
Tue 02:53:00 PM 17.7240 -63.9981 291° West  Level Estimated
Tue 02:54:00 PM 17.7396 -64.0409 291° West  Level Estimated
Tue 02:55:00 PM 17.7551 -64.0837 291° West  Level Estimated
Tue 02:56:00 PM 17.7707 -64.1265 291° West  Level Estimated
Tue 02:57:00 PM 17.7862 -64.1693 291° West  Level Estimated
Tue 02:58:00 PM 17.8017 -64.2121 291° West  Level Estimated
Tue 02:59:00 PM 17.8172 -64.2550 291° West  Level Estimated
Tue 03:00:00 PM 17.8327 -64.2978 291° West  Level Estimated
Tue 03:01:00 PM 17.8482 -64.3407 291° West  Level Estimated
Tue 03:02:00 PM 17.8637 -64.3835 291° West  Level Estimated
Tue 03:03:00 PM 17.8791 -64.4264 291° West  Level Estimated
Tue 03:04:00 PM 17.8946 -64.4693 291° West  Level Estimated
Tue 03:05:00 PM 17.9100 -64.5121 291° West  Level Estimated
Tue 03:06:00 PM 17.9255 -64.5550 291° West  Level Estimated
Tue 03:07:00 PM 17.9409 -64.5979 291° West  Level Estimated
Tue 03:08:00 PM 17.9563 -64.6408 291° West  Level Estimated
Tue 03:09:00 PM 17.9718 -64.6837 291° West  Level Estimated
Tue 03:10:00 PM 17.9872 -64.7267 291° West  Level Estimated
Tue 03:11:00 PM 18.0025 -64.7696 291° West  Level Estimated
Tue 03:12:00 PM 18.0179 -64.8125 291° West  Level Estimated
Tue 03:13:00 PM 18.0333 -64.8555 291° West  Level Estimated
Tue 03:14:00 PM 18.0487 -64.8984 291° West  Level Estimated
Tue 03:15:00 PM 18.0640 -64.9414 291° West  Level Estimated
Tue 03:16:00 PM 18.0794 -64.9843 291° West  Level Estimated
Tue 03:17:00 PM 18.0947 -65.0273 291° West  Level Estimated
Tue 03:18:00 PM 18.1100 -65.0703 291° West  Level Estimated
Tue 03:19:00 PM 18.1254 -65.1133 291° West  Level Estimated
Tue 03:20:00 PM 18.1407 -65.1562 291° West  Level Estimated
Tue 03:21:00 PM 18.1560 -65.1992 291° West  Level Estimated
Tue 03:22:00 PM 18.1713 -65.2423 291° West  Level Estimated
Tue 03:23:00 PM 18.1865 -65.2853 291° West  Level Estimated
Tue 03:24:00 PM 18.2018 -65.3283 290° West  Level Estimated
Tue 03:25:00 PM 18.2171 -65.3713 290° West  Level Estimated
Tue 03:26:00 PM 18.2323 -65.4144 290° West  Level Estimated
Tue 03:27:00 PM 18.2476 -65.4574 290° West  Level Estimated
Tue 03:28:00 PM 18.2628 -65.5005 290° West  Level Estimated
Tue 03:29:00 PM 18.2780 -65.5435 290° West  Level Estimated
Tue 03:30:00 PM 18.2932 -65.5866 290° West  Level Estimated
Tue 03:31:00 PM 18.3084 -65.6297 290° West  Level Estimated
Tue 03:32:00 PM 18.3236 -65.6728 290° West  Level Estimated
Tue 03:33:00 PM 18.3388 -65.7159 290° West  Level Estimated
Tue 03:34:00 PM 18.3540 -65.7589 290° West  Level Estimated
Tue 03:35:00 PM 18.3691 -65.8021 290° West  Level Estimated
Tue 03:36:00 PM 18.3843 -65.8452 290° West  Level Estimated
Tue 03:37:00 PM 18.3994 -65.8883 290° West  Level Estimated
Tue 03:38:00 PM 18.4146 -65.9314 290° West  Level Estimated
Tue 03:39:00 PM 18.4297 -65.9746 290° West  Level Estimated
Tue 03:40:00 PM 18.4393 -66.0020 290° West  Level Estimated
Tue 03:41:00 PM 18.4393 -66.0020 319° Northwest  Level Estimated
Tue 03:42:00 PM 18.4393 -66.0020 319° Northwest  Level Estimated
Tue 03:43:00 PM 18.4393 -66.0020 319° Northwest  Level Estimated
Tue 03:44:00 PM 18.4393 -66.0020 319° Northwest  Level Estimated
Tue 03:45:00 PM 18.4393 -66.0020 319° Northwest  Level Estimated
Tue 03:46:00 PM 18.4393 -66.0020 319° Northwest  Level Estimated
Tue 03:47:00 PM 18.4393 -66.0020 319° Northwest  Level Estimated
Tue 03:48:00 PM 18.4393 -66.0020 319° Northwest  Level Estimated

Login

Don't have an account? Register now (free) for customized features, flight alerts, and more!